sensor_id;sensor_type;location;lat;lon;timestamp;P1;durP1;ratioP1;P2;durP2;ratioP2
23310;SDS011;11828;51.508;18.118;2023-04-01T00:01:01;25.88;;;9.38;;
23310;SDS011;11828;51.508;18.118;2023-04-01T00:03:28;19.77;;;8.25;;
23310;SDS011;11828;51.508;18.118;2023-04-01T00:05:56;24.45;;;9.95;;
23310;SDS011;11828;51.508;18.118;2023-04-01T00:08:24;32.60;;;13.57;;
23310;SDS011;11828;51.508;18.118;2023-04-01T00:10:52;32.92;;;14.63;;
23310;SDS011;11828;51.508;18.118;2023-04-01T00:13:19;37.00;;;15.80;;
23310;SDS011;11828;51.508;18.118;2023-04-01T00:15:47;36.28;;;15.75;;
23310;SDS011;11828;51.508;18.118;2023-04-01T00:18:13;26.25;;;14.20;;
23310;SDS011;11828;51.508;18.118;2023-04-01T00:20:44;33.75;;;14.88;;
23310;SDS011;11828;51.508;18.118;2023-04-01T00:23:12;35.35;;;14.95;;
23310;SDS011;11828;51.508;18.118;2023-04-01T00:25:39;45.92;;;16.48;;
23310;SDS011;11828;51.508;18.118;2023-04-01T00:28:05;39.47;;;16.70;;
23310;SDS011;11828;51.508;18.118;2023-04-01T00:30:32;41.22;;;18.23;;
23310;SDS011;11828;51.508;18.118;2023-04-01T00:32:58;39.33;;;17.95;;
23310;SDS011;11828;51.508;18.118;2023-04-01T00:35:25;41.35;;;17.63;;
23310;SDS011;11828;51.508;18.118;2023-04-01T00:37:51;40.78;;;17.17;;
23310;SDS011;11828;51.508;18.118;2023-04-01T00:40:25;30.83;;;15.38;;
23310;SDS011;11828;51.508;18.118;2023-04-01T00:42:58;28.48;;;14.88;;
23310;SDS011;11828;51.508;18.118;2023-04-01T00:45:30;30.52;;;13.30;;
23310;SDS011;11828;51.508;18.118;2023-04-01T00:48:04;29.58;;;11.77;;
23310;SDS011;11828;51.508;18.118;2023-04-01T00:50:36;27.48;;;10.75;;
23310;SDS011;11828;51.508;18.118;2023-04-01T00:53:05;25.33;;;9.10;;
23310;SDS011;11828;51.508;18.118;2023-04-01T00:55:33;27.15;;;10.48;;
23310;SDS011;11828;51.508;18.118;2023-04-01T00:58:03;24.83;;;9.57;;
23310;SDS011;11828;51.508;18.118;2023-04-01T01:00:33;28.08;;;10.05;;
23310;SDS011;11828;51.508;18.118;2023-04-01T01:03:01;22.83;;;9.60;;
23310;SDS011;11828;51.508;18.118;2023-04-01T01:12:20;35.08;;;9.68;;
23310;SDS011;11828;51.508;18.118;2023-04-01T01:15:24;24.45;;;8.90;;
23310;SDS011;11828;51.508;18.118;2023-04-01T01:27:02;27.33;;;8.98;;
23310;SDS011;11828;51.508;18.118;2023-04-01T01:35:16;17.15;;;7.53;;
23310;SDS011;11828;51.508;18.118;2023-04-01T01:37:52;20.10;;;7.10;;
23310;SDS011;11828;51.508;18.118;2023-04-01T01:40:23;17.15;;;6.68;;
23310;SDS011;11828;51.508;18.118;2023-04-01T01:42:53;24.88;;;7.60;;
23310;SDS011;11828;51.508;18.118;2023-04-01T01:45:26;21.85;;;7.10;;
23310;SDS011;11828;51.508;18.118;2023-04-01T01:47:54;16.55;;;5.88;;
23310;SDS011;11828;51.508;18.118;2023-04-01T01:50:23;14.30;;;5.68;;
23310;SDS011;11828;51.508;18.118;2023-04-01T01:52:51;15.93;;;5.80;;
23310;SDS011;11828;51.508;18.118;2023-04-01T01:55:30;11.98;;;5.07;;
23310;SDS011;11828;51.508;18.118;2023-04-01T01:58:02;16.48;;;5.65;;
23310;SDS011;11828;51.508;18.118;2023-04-01T02:00:57;14.65;;;5.00;;
23310;SDS011;11828;51.508;18.118;2023-04-01T02:03:27;25.13;;;6.68;;
23310;SDS011;11828;51.508;18.118;2023-04-01T02:05:59;12.32;;;4.72;;
23310;SDS011;11828;51.508;18.118;2023-04-01T02:11:15;13.02;;;4.90;;
23310;SDS011;11828;51.508;18.118;2023-04-01T02:13:55;13.57;;;4.85;;
23310;SDS011;11828;51.508;18.118;2023-04-01T02:16:31;13.75;;;4.72;;
23310;SDS011;11828;51.508;18.118;2023-04-01T02:19:02;9.85;;;4.18;;
23310;SDS011;11828;51.508;18.118;2023-04-01T02:21:34;13.55;;;4.30;;
23310;SDS011;11828;51.508;18.118;2023-04-01T02:24:03;9.60;;;3.75;;
23310;SDS011;11828;51.508;18.118;2023-04-01T02:26:34;14.35;;;4.72;;
23310;SDS011;11828;51.508;18.118;2023-04-01T02:29:00;14.52;;;4.82;;
23310;SDS011;11828;51.508;18.118;2023-04-01T02:31:29;12.55;;;4.00;;
23310;SDS011;11828;51.508;18.118;2023-04-01T02:33:56;12.93;;;3.85;;
23310;SDS011;11828;51.508;18.118;2023-04-01T02:36:23;9.48;;;3.00;;
23310;SDS011;11828;51.508;18.118;2023-04-01T02:38:50;11.52;;;3.22;;
23310;SDS011;11828;51.508;18.118;2023-04-01T02:41:17;12.05;;;3.03;;
23310;SDS011;11828;51.508;18.118;2023-04-01T02:43:43;12.73;;;3.55;;
23310;SDS011;11828;51.508;18.118;2023-04-01T02:46:10;14.70;;;3.70;;
23310;SDS011;11828;51.508;18.118;2023-04-01T02:48:36;14.63;;;3.67;;
23310;SDS011;11828;51.508;18.118;2023-04-01T02:51:02;13.48;;;3.80;;
23310;SDS011;11828;51.508;18.118;2023-04-01T02:53:29;10.00;;;3.50;;
23310;SDS011;11828;51.508;18.118;2023-04-01T02:55:55;25.45;;;4.70;;
23310;SDS011;11828;51.508;18.118;2023-04-01T02:58:21;11.30;;;3.20;;
23310;SDS011;11828;51.508;18.118;2023-04-01T03:00:47;15.93;;;3.45;;
23310;SDS011;11828;51.508;18.118;2023-04-01T03:03:13;11.32;;;3.22;;
23310;SDS011;11828;51.508;18.118;2023-04-01T03:05:40;13.68;;;3.10;;
23310;SDS011;11828;51.508;18.118;2023-04-01T03:08:06;13.48;;;3.30;;
23310;SDS011;11828;51.508;18.118;2023-04-01T03:10:32;11.68;;;3.30;;
23310;SDS011;11828;51.508;18.118;2023-04-01T03:12:58;13.63;;;3.47;;
23310;SDS011;11828;51.508;18.118;2023-04-01T03:15:24;17.33;;;3.80;;
23310;SDS011;11828;51.508;18.118;2023-04-01T03:17:51;12.95;;;3.75;;
23310;SDS011;11828;51.508;18.118;2023-04-01T03:20:17;14.38;;;3.70;;
23310;SDS011;11828;51.508;18.118;2023-04-01T03:22:43;16.33;;;3.83;;
23310;SDS011;11828;51.508;18.118;2023-04-01T03:25:09;15.57;;;4.15;;
23310;SDS011;11828;51.508;18.118;2023-04-01T03:27:36;12.45;;;4.10;;
23310;SDS011;11828;51.508;18.118;2023-04-01T03:30:03;16.45;;;4.60;;
23310;SDS011;11828;51.508;18.118;2023-04-01T03:32:31;13.13;;;3.53;;
23310;SDS011;11828;51.508;18.118;2023-04-01T03:34:57;15.15;;;3.75;;
23310;SDS011;11828;51.508;18.118;2023-04-01T03:37:23;13.48;;;3.60;;
23310;SDS011;11828;51.508;18.118;2023-04-01T03:39:50;12.82;;;3.20;;
23310;SDS011;11828;51.508;18.118;2023-04-01T03:42:16;12.02;;;3.25;;
23310;SDS011;11828;51.508;18.118;2023-04-01T03:44:43;20.60;;;3.65;;
23310;SDS011;11828;51.508;18.118;2023-04-01T03:47:09;12.88;;;3.30;;
23310;SDS011;11828;51.508;18.118;2023-04-01T03:49:35;15.20;;;3.60;;
23310;SDS011;11828;51.508;18.118;2023-04-01T03:52:01;13.63;;;3.35;;
23310;SDS011;11828;51.508;18.118;2023-04-01T03:54:28;12.13;;;3.10;;
23310;SDS011;11828;51.508;18.118;2023-04-01T03:56:54;11.98;;;3.45;;
23310;SDS011;11828;51.508;18.118;2023-04-01T03:59:20;27.17;;;4.90;;
23310;SDS011;11828;51.508;18.118;2023-04-01T04:01:46;16.02;;;4.03;;
23310;SDS011;11828;51.508;18.118;2023-04-01T04:04:13;15.98;;;4.00;;
23310;SDS011;11828;51.508;18.118;2023-04-01T04:06:39;12.90;;;4.03;;
23310;SDS011;11828;51.508;18.118;2023-04-01T04:09:06;12.30;;;3.97;;
23310;SDS011;11828;51.508;18.118;2023-04-01T04:11:32;14.05;;;4.47;;
23310;SDS011;11828;51.508;18.118;2023-04-01T04:13:59;13.18;;;3.80;;
23310;SDS011;11828;51.508;18.118;2023-04-01T04:16:25;12.73;;;3.80;;
23310;SDS011;11828;51.508;18.118;2023-04-01T04:18:51;14.98;;;3.25;;
23310;SDS011;11828;51.508;18.118;2023-04-01T04:21:18;13.98;;;3.47;;
23310;SDS011;11828;51.508;18.118;2023-04-01T04:23:44;15.90;;;3.75;;
23310;SDS011;11828;51.508;18.118;2023-04-01T04:26:11;20.55;;;4.47;;
23310;SDS011;11828;51.508;18.118;2023-04-01T04:28:39;12.88;;;3.53;;
23310;SDS011;11828;51.508;18.118;2023-04-01T04:31:06;21.13;;;4.63;;
23310;SDS011;11828;51.508;18.118;2023-04-01T04:33:33;21.05;;;4.38;;
23310;SDS011;11828;51.508;18.118;2023-04-01T04:36:00;15.32;;;3.97;;
23310;SDS011;11828;51.508;18.118;2023-04-01T04:38:28;14.88;;;4.00;;
23310;SDS011;11828;51.508;18.118;2023-04-01T04:40:55;19.45;;;4.65;;
23310;SDS011;11828;51.508;18.118;2023-04-01T04:43:21;15.48;;;3.90;;
23310;SDS011;11828;51.508;18.118;2023-04-01T04:45:48;24.52;;;4.88;;
23310;SDS011;11828;51.508;18.118;2023-04-01T04:48:15;14.63;;;4.20;;
23310;SDS011;11828;51.508;18.118;2023-04-01T04:50:44;19.20;;;4.68;;
23310;SDS011;11828;51.508;18.118;2023-04-01T04:53:13;19.58;;;5.63;;
23310;SDS011;11828;51.508;18.118;2023-04-01T04:55:44;18.55;;;4.95;;
23310;SDS011;11828;51.508;18.118;2023-04-01T04:58:12;20.48;;;5.00;;
23310;SDS011;11828;51.508;18.118;2023-04-01T05:00:39;24.58;;;5.20;;
23310;SDS011;11828;51.508;18.118;2023-04-01T05:03:06;22.40;;;5.32;;
23310;SDS011;11828;51.508;18.118;2023-04-01T05:05:33;18.50;;;4.55;;
23310;SDS011;11828;51.508;18.118;2023-04-01T05:08:00;16.85;;;4.75;;
23310;SDS011;11828;51.508;18.118;2023-04-01T05:10:26;19.08;;;4.97;;
23310;SDS011;11828;51.508;18.118;2023-04-01T05:12:53;20.33;;;5.60;;
23310;SDS011;11828;51.508;18.118;2023-04-01T05:15:19;36.70;;;9.13;;
23310;SDS011;11828;51.508;18.118;2023-04-01T05:17:45;31.55;;;8.80;;
23310;SDS011;11828;51.508;18.118;2023-04-01T05:20:12;23.08;;;6.85;;
23310;SDS011;11828;51.508;18.118;2023-04-01T05:22:41;22.80;;;7.43;;
23310;SDS011;11828;51.508;18.118;2023-04-01T05:25:08;22.40;;;6.82;;
23310;SDS011;11828;51.508;18.118;2023-04-01T05:27:35;22.50;;;6.15;;
23310;SDS011;11828;51.508;18.118;2023-04-01T05:30:01;26.30;;;5.80;;
23310;SDS011;11828;51.508;18.118;2023-04-01T05:32:28;22.35;;;5.80;;
23310;SDS011;11828;51.508;18.118;2023-04-01T05:34:56;17.83;;;5.53;;
23310;SDS011;11828;51.508;18.118;2023-04-01T05:37:23;17.80;;;5.70;;
23310;SDS011;11828;51.508;18.118;2023-04-01T05:39:49;20.15;;;5.50;;
23310;SDS011;11828;51.508;18.118;2023-04-01T05:42:15;18.17;;;5.63;;
23310;SDS011;11828;51.508;18.118;2023-04-01T05:44:41;14.75;;;5.20;;
23310;SDS011;11828;51.508;18.118;2023-04-01T05:47:07;21.65;;;6.93;;
23310;SDS011;11828;51.508;18.118;2023-04-01T05:49:34;20.80;;;7.05;;
23310;SDS011;11828;51.508;18.118;2023-04-01T05:52:00;24.90;;;7.70;;
23310;SDS011;11828;51.508;18.118;2023-04-01T05:54:26;27.75;;;7.90;;
23310;SDS011;11828;51.508;18.118;2023-04-01T05:56:53;21.90;;;7.72;;
23310;SDS011;11828;51.508;18.118;2023-04-01T05:59:19;24.42;;;7.63;;
23310;SDS011;11828;51.508;18.118;2023-04-01T06:01:45;32.63;;;8.43;;
23310;SDS011;11828;51.508;18.118;2023-04-01T06:04:16;22.27;;;7.20;;
23310;SDS011;11828;51.508;18.118;2023-04-01T06:06:43;19.05;;;7.10;;
23310;SDS011;11828;51.508;18.118;2023-04-01T06:09:14;33.08;;;8.50;;
23310;SDS011;11828;51.508;18.118;2023-04-01T06:18:00;23.75;;;7.13;;
23310;SDS011;11828;51.508;18.118;2023-04-01T06:29:33;22.23;;;7.45;;
23310;SDS011;11828;51.508;18.118;2023-04-01T06:34:54;26.30;;;9.13;;
23310;SDS011;11828;51.508;18.118;2023-04-01T06:40:58;21.38;;;7.13;;
23310;SDS011;11828;51.508;18.118;2023-04-01T06:49:17;21.15;;;6.85;;
23310;SDS011;11828;51.508;18.118;2023-04-01T06:55:22;21.45;;;7.35;;
23310;SDS011;11828;51.508;18.118;2023-04-01T06:57:52;20.88;;;8.18;;
23310;SDS011;11828;51.508;18.118;2023-04-01T07:00:30;29.98;;;8.20;;
23310;SDS011;11828;51.508;18.118;2023-04-01T07:05:52;15.73;;;5.95;;
23310;SDS011;11828;51.508;18.118;2023-04-01T07:08:24;16.75;;;5.47;;
23310;SDS011;11828;51.508;18.118;2023-04-01T07:11:00;17.80;;;5.45;;
23310;SDS011;11828;51.508;18.118;2023-04-01T07:21:52;20.77;;;6.90;;
23310;SDS011;11828;51.508;18.118;2023-04-01T07:24:29;21.95;;;7.32;;
23310;SDS011;11828;51.508;18.118;2023-04-01T07:27:00;19.55;;;6.25;;
23310;SDS011;11828;51.508;18.118;2023-04-01T07:29:26;24.13;;;6.57;;
23310;SDS011;11828;51.508;18.118;2023-04-01T07:34:30;16.55;;;4.88;;
23310;SDS011;11828;51.508;18.118;2023-04-01T07:37:30;16.70;;;5.20;;
23310;SDS011;11828;51.508;18.118;2023-04-01T07:40:31;26.83;;;7.07;;
23310;SDS011;11828;51.508;18.118;2023-04-01T07:46:08;23.25;;;5.75;;
23310;SDS011;11828;51.508;18.118;2023-04-01T07:56:42;18.00;;;5.00;;
23310;SDS011;11828;51.508;18.118;2023-04-01T08:14:02;29.48;;;5.93;;
23310;SDS011;11828;51.508;18.118;2023-04-01T08:22:36;37.95;;;8.48;;
23310;SDS011;11828;51.508;18.118;2023-04-01T08:25:30;28.27;;;6.60;;
23310;SDS011;11828;51.508;18.118;2023-04-01T08:28:21;30.23;;;6.47;;
23310;SDS011;11828;51.508;18.118;2023-04-01T08:33:24;24.20;;;5.13;;
23310;SDS011;11828;51.508;18.118;2023-04-01T08:35:57;30.73;;;5.93;;
23310;SDS011;11828;51.508;18.118;2023-04-01T08:47:35;25.80;;;4.80;;
23310;SDS011;11828;51.508;18.118;2023-04-01T08:57:10;21.58;;;4.50;;
23310;SDS011;11828;51.508;18.118;2023-04-01T09:14:34;32.85;;;9.90;;
23310;SDS011;11828;51.508;18.118;2023-04-01T09:20:02;33.90;;;8.85;;
23310;SDS011;11828;51.508;18.118;2023-04-01T09:22:45;30.05;;;6.57;;
23310;SDS011;11828;51.508;18.118;2023-04-01T09:25:38;23.60;;;5.20;;
23310;SDS011;11828;51.508;18.118;2023-04-01T09:28:13;21.08;;;4.60;;
23310;SDS011;11828;51.508;18.118;2023-04-01T09:34:26;20.30;;;5.00;;
23310;SDS011;11828;51.508;18.118;2023-04-01T09:45:05;19.95;;;5.20;;
23310;SDS011;11828;51.508;18.118;2023-04-01T09:48:33;32.75;;;6.57;;
23310;SDS011;11828;51.508;18.118;2023-04-01T09:51:46;16.48;;;5.80;;
23310;SDS011;11828;51.508;18.118;2023-04-01T09:55:25;14.05;;;4.40;;
23310;SDS011;11828;51.508;18.118;2023-04-01T09:58:42;16.65;;;3.60;;
23310;SDS011;11828;51.508;18.118;2023-04-01T10:07:50;25.70;;;4.60;;
23310;SDS011;11828;51.508;18.118;2023-04-01T10:13:48;16.10;;;4.80;;
23310;SDS011;11828;51.508;18.118;2023-04-01T10:25:37;23.70;;;5.75;;
23310;SDS011;11828;51.508;18.118;2023-04-01T10:31:13;28.00;;;6.65;;
23310;SDS011;11828;51.508;18.118;2023-04-01T10:36:56;20.88;;;5.38;;
23310;SDS011;11828;51.508;18.118;2023-04-01T10:45:33;20.00;;;4.25;;
23310;SDS011;11828;51.508;18.118;2023-04-01T10:58:03;21.63;;;6.25;;
23310;SDS011;11828;51.508;18.118;2023-04-01T11:01:02;21.55;;;5.50;;
23310;SDS011;11828;51.508;18.118;2023-04-01T11:07:15;22.10;;;6.57;;
23310;SDS011;11828;51.508;18.118;2023-04-01T11:19:48;18.95;;;5.32;;
23310;SDS011;11828;51.508;18.118;2023-04-01T11:39:58;14.25;;;5.35;;
23310;SDS011;11828;51.508;18.118;2023-04-01T11:42:54;16.42;;;5.75;;
23310;SDS011;11828;51.508;18.118;2023-04-01T11:46:25;16.67;;;5.00;;
23310;SDS011;11828;51.508;18.118;2023-04-01T11:48:58;22.00;;;5.53;;
23310;SDS011;11828;51.508;18.118;2023-04-01T12:04:18;13.68;;;5.80;;
23310;SDS011;11828;51.508;18.118;2023-04-01T12:07:40;12.75;;;5.90;;
23310;SDS011;11828;51.508;18.118;2023-04-01T12:10:40;14.52;;;5.18;;
23310;SDS011;11828;51.508;18.118;2023-04-01T12:25:14;11.82;;;4.13;;
23310;SDS011;11828;51.508;18.118;2023-04-01T12:28:25;13.93;;;3.30;;
23310;SDS011;11828;51.508;18.118;2023-04-01T12:37:08;11.88;;;3.53;;
23310;SDS011;11828;51.508;18.118;2023-04-01T12:46:00;11.98;;;3.80;;
23310;SDS011;11828;51.508;18.118;2023-04-01T13:00:44;9.88;;;3.40;;
23310;SDS011;11828;51.508;18.118;2023-04-01T13:21:01;10.32;;;3.80;;
23310;SDS011;11828;51.508;18.118;2023-04-01T13:23:40;25.35;;;5.25;;
23310;SDS011;11828;51.508;18.118;2023-04-01T13:29:06;14.88;;;4.47;;
23310;SDS011;11828;51.508;18.118;2023-04-01T13:31:55;16.42;;;5.00;;
23310;SDS011;11828;51.508;18.118;2023-04-01T13:47:09;14.60;;;6.30;;
23310;SDS011;11828;51.508;18.118;2023-04-01T14:07:32;13.52;;;7.07;;
23310;SDS011;11828;51.508;18.118;2023-04-01T14:14:02;12.77;;;7.18;;
23310;SDS011;11828;51.508;18.118;2023-04-01T14:16:26;17.75;;;8.55;;
23310;SDS011;11828;51.508;18.118;2023-04-01T14:30:59;20.98;;;9.63;;
23310;SDS011;11828;51.508;18.118;2023-04-01T14:43:04;22.00;;;11.40;;
23310;SDS011;11828;51.508;18.118;2023-04-01T14:51:20;29.88;;;11.93;;
23310;SDS011;11828;51.508;18.118;2023-04-01T14:59:49;21.77;;;10.40;;
23310;SDS011;11828;51.508;18.118;2023-04-01T15:05:16;24.63;;;11.52;;
23310;SDS011;11828;51.508;18.118;2023-04-01T15:10:39;22.83;;;12.63;;
23310;SDS011;11828;51.508;18.118;2023-04-01T15:16:40;26.98;;;13.50;;
23310;SDS011;11828;51.508;18.118;2023-04-01T15:19:29;32.60;;;15.93;;
23310;SDS011;11828;51.508;18.118;2023-04-01T15:25:18;29.90;;;15.30;;
23310;SDS011;11828;51.508;18.118;2023-04-01T15:36:35;32.78;;;16.40;;
23310;SDS011;11828;51.508;18.118;2023-04-01T15:41:49;35.72;;;17.52;;
23310;SDS011;11828;51.508;18.118;2023-04-01T15:53:06;34.90;;;16.52;;
23310;SDS011;11828;51.508;18.118;2023-04-01T16:02:07;31.70;;;15.68;;
23310;SDS011;11828;51.508;18.118;2023-04-01T16:05:05;33.30;;;16.77;;
23310;SDS011;11828;51.508;18.118;2023-04-01T16:11:34;36.60;;;17.90;;
23310;SDS011;11828;51.508;18.118;2023-04-01T16:16:56;35.70;;;17.23;;
23310;SDS011;11828;51.508;18.118;2023-04-01T16:19:44;38.13;;;18.42;;
23310;SDS011;11828;51.508;18.118;2023-04-01T16:31:04;35.65;;;17.35;;
23310;SDS011;11828;51.508;18.118;2023-04-01T16:36:48;32.13;;;15.98;;
23310;SDS011;11828;51.508;18.118;2023-04-01T16:39:22;32.05;;;15.43;;
23310;SDS011;11828;51.508;18.118;2023-04-01T16:42:18;38.78;;;18.48;;
23310;SDS011;11828;51.508;18.118;2023-04-01T16:44:50;32.53;;;17.15;;
23310;SDS011;11828;51.508;18.118;2023-04-01T16:47:35;30.17;;;16.73;;
23310;SDS011;11828;51.508;18.118;2023-04-01T16:58:18;39.30;;;20.10;;
23310;SDS011;11828;51.508;18.118;2023-04-01T17:01:27;32.17;;;17.80;;
23310;SDS011;11828;51.508;18.118;2023-04-01T17:04:53;41.08;;;19.23;;
23310;SDS011;11828;51.508;18.118;2023-04-01T17:07:44;42.35;;;17.05;;
23310;SDS011;11828;51.508;18.118;2023-04-01T17:15:59;30.45;;;17.60;;
23310;SDS011;11828;51.508;18.118;2023-04-01T17:39:51;31.50;;;17.30;;
23310;SDS011;11828;51.508;18.118;2023-04-01T17:57:14;33.63;;;18.80;;
23310;SDS011;11828;51.508;18.118;2023-04-01T18:00:12;35.53;;;19.92;;
23310;SDS011;11828;51.508;18.118;2023-04-01T18:03:44;35.35;;;19.00;;
23310;SDS011;11828;51.508;18.118;2023-04-01T18:20:11;34.55;;;22.88;;
23310;SDS011;11828;51.508;18.118;2023-04-01T18:23:00;29.58;;;19.40;;
23310;SDS011;11828;51.508;18.118;2023-04-01T18:25:54;29.85;;;15.13;;
23310;SDS011;11828;51.508;18.118;2023-04-01T18:28:35;49.30;;;19.27;;
23310;SDS011;11828;51.508;18.118;2023-04-01T18:31:20;27.70;;;14.48;;
23310;SDS011;11828;51.508;18.118;2023-04-01T18:36:47;29.20;;;15.60;;
23310;SDS011;11828;51.508;18.118;2023-04-01T18:39:22;26.52;;;18.02;;
23310;SDS011;11828;51.508;18.118;2023-04-01T18:42:12;27.75;;;15.38;;
23310;SDS011;11828;51.508;18.118;2023-04-01T18:47:55;35.75;;;23.27;;
23310;SDS011;11828;51.508;18.118;2023-04-01T18:50:58;27.38;;;15.18;;
23310;SDS011;11828;51.508;18.118;2023-04-01T18:53:37;39.67;;;20.88;;
23310;SDS011;11828;51.508;18.118;2023-04-01T18:56:36;26.73;;;14.25;;
23310;SDS011;11828;51.508;18.118;2023-04-01T18:59:11;28.13;;;16.40;;
23310;SDS011;11828;51.508;18.118;2023-04-01T19:07:41;27.05;;;16.58;;
23310;SDS011;11828;51.508;18.118;2023-04-01T19:15:46;27.98;;;16.73;;
23310;SDS011;11828;51.508;18.118;2023-04-01T19:39:10;30.40;;;15.20;;
23310;SDS011;11828;51.508;18.118;2023-04-01T19:42:02;29.90;;;15.30;;
23310;SDS011;11828;51.508;18.118;2023-04-01T19:44:51;43.92;;;30.27;;
23310;SDS011;11828;51.508;18.118;2023-04-01T19:47:37;28.50;;;15.82;;
23310;SDS011;11828;51.508;18.118;2023-04-01T19:53:34;28.08;;;16.85;;
23310;SDS011;11828;51.508;18.118;2023-04-01T19:56:17;38.70;;;28.50;;
23310;SDS011;11828;51.508;18.118;2023-04-01T20:01:51;57.53;;;48.00;;
23310;SDS011;11828;51.508;18.118;2023-04-01T20:07:05;77.07;;;58.00;;
23310;SDS011;11828;51.508;18.118;2023-04-01T20:14:59;31.83;;;16.10;;
23310;SDS011;11828;51.508;18.118;2023-04-01T20:17:51;32.60;;;15.82;;
23310;SDS011;11828;51.508;18.118;2023-04-01T20:20:20;50.88;;;36.13;;
23310;SDS011;11828;51.508;18.118;2023-04-01T20:23:02;38.20;;;22.17;;
23310;SDS011;11828;51.508;18.118;2023-04-01T20:25:43;29.25;;;16.38;;
23310;SDS011;11828;51.508;18.118;2023-04-01T20:36:09;74.63;;;51.78;;
23310;SDS011;11828;51.508;18.118;2023-04-01T20:44:04;65.63;;;36.88;;
23310;SDS011;11828;51.508;18.118;2023-04-01T20:47:14;32.75;;;14.65;;
23310;SDS011;11828;51.508;18.118;2023-04-01T20:52:58;28.73;;;13.45;;
23310;SDS011;11828;51.508;18.118;2023-04-01T21:01:07;27.30;;;13.43;;
23310;SDS011;11828;51.508;18.118;2023-04-01T21:04:16;28.38;;;14.35;;
23310;SDS011;11828;51.508;18.118;2023-04-01T21:15:25;37.13;;;24.70;;
23310;SDS011;11828;51.508;18.118;2023-04-01T21:21:13;56.13;;;33.30;;
23310;SDS011;11828;51.508;18.118;2023-04-01T21:41:16;31.63;;;16.92;;
23310;SDS011;11828;51.508;18.118;2023-04-01T21:55:16;34.25;;;17.23;;
23310;SDS011;11828;51.508;18.118;2023-04-01T22:01:00;39.58;;;19.27;;
23310;SDS011;11828;51.508;18.118;2023-04-01T22:04:08;43.22;;;18.60;;
23310;SDS011;11828;51.508;18.118;2023-04-01T22:15:18;33.63;;;18.05;;
23310;SDS011;11828;51.508;18.118;2023-04-01T22:20:50;39.00;;;17.30;;
23310;SDS011;11828;51.508;18.118;2023-04-01T22:23:42;34.50;;;16.15;;
23310;SDS011;11828;51.508;18.118;2023-04-01T22:26:26;39.83;;;17.63;;
23310;SDS011;11828;51.508;18.118;2023-04-01T22:32:09;40.22;;;25.52;;
23310;SDS011;11828;51.508;18.118;2023-04-01T22:49:20;40.63;;;15.02;;
23310;SDS011;11828;51.508;18.118;2023-04-01T22:54:56;31.80;;;20.17;;
23310;SDS011;11828;51.508;18.118;2023-04-01T23:00:01;28.77;;;12.85;;
23310;SDS011;11828;51.508;18.118;2023-04-01T23:02:38;26.63;;;12.32;;
23310;SDS011;11828;51.508;18.118;2023-04-01T23:05:25;38.17;;;22.27;;
23310;SDS011;11828;51.508;18.118;2023-04-01T23:07:56;59.42;;;41.25;;
23310;SDS011;11828;51.508;18.118;2023-04-01T23:10:52;25.08;;;13.30;;
23310;SDS011;11828;51.508;18.118;2023-04-01T23:13:31;36.50;;;20.33;;
23310;SDS011;11828;51.508;18.118;2023-04-01T23:16:04;61.53;;;47.88;;
23310;SDS011;11828;51.508;18.118;2023-04-01T23:21:22;40.35;;;23.30;;
23310;SDS011;11828;51.508;18.118;2023-04-01T23:29:36;36.20;;;24.10;;
23310;SDS011;11828;51.508;18.118;2023-04-01T23:32:05;32.60;;;18.60;;
23310;SDS011;11828;51.508;18.118;2023-04-01T23:34:46;50.58;;;36.45;;
23310;SDS011;11828;51.508;18.118;2023-04-01T23:37:24;27.42;;;10.80;;
23310;SDS011;11828;51.508;18.118;2023-04-01T23:39:56;55.05;;;38.25;;
23310;SDS011;11828;51.508;18.118;2023-04-01T23:42:25;32.00;;;18.20;;
23310;SDS011;11828;51.508;18.118;2023-04-01T23:44:58;27.20;;;11.65;;
23310;SDS011;11828;51.508;18.118;2023-04-01T23:47:32;34.22;;;22.27;;
23310;SDS011;11828;51.508;18.118;2023-04-01T23:52:42;28.15;;;11.23;;
23310;SDS011;11828;51.508;18.118;2023-04-01T23:55:26;59.75;;;40.22;;
